Latest Coastal Weather Observations for Bairnsdale

IDV60701

Issued at 8:35 pm EST Monday 21 April 2014 (issued every 10 minutes, with the page automatically refreshed every 10 minutes)

About coastal observations | Map of coastal stations | Coastal observations for VIC | Marine services | Other Formats
Station Details ID: 085279 Name: BAIRNSDALE AIRPORT Lat: -37.88 Lon: 147.57 Height: 49.4 m
Data from the previous 72 hours. | See also: Recent months at Bairnsdale
Date/Time
EST
Temp

°C
Wind Pressure Rain
since 9am
mm
Weather Cloud Vis
km
Sea
Height
m
Swell
Dir
 
Speed
knots
Gust
knots
hPa Trend Height
m
Period
s
Dir
21/08:30pm 13.5 NNE 5 6 1015.3 - 0.2 - - 10 - - - -
21/08:00pm 13.5 NE 6 7 1015.4 - 0.2 - - 10 - - - -
21/07:30pm 13.7 NE 5 6 1015.7 - 0.2 - - 10 - - - -
21/07:00pm 14.5 NE 6 7 1015.9 - 0.2 - - 10 - - - -
21/06:30pm 15.0 ENE 6 7 1015.9 - 0.2 - - 10 - - - -
21/06:00pm 15.8 ENE 7 8 1015.8 - 0.2 - - 10 - - - -
21/05:30pm 16.2 E 6 7 1015.8 - 0.2 - - 10 - - - -
21/05:00pm 17.2 E 5 6 1015.8 - 0.2 - - 10 - - - -
21/04:30pm 17.9 ENE 5 6 1015.7 - 0.2 - - 10 - - - -
21/04:00pm 18.8 ENE 6 7 1015.4 - 0.0 - - 10 - - - -
21/03:30pm 19.4 NE 7 9 1015.3 - 0.0 - - 10 - - - -
21/03:00pm 20.4 NE 7 10 1015.7 - 0.0 - - 10 - - - -
21/02:30pm 20.0 NE 8 11 1015.9 - 0.0 - - 10 - - - -
21/02:00pm 20.0 NNE 9 11 1016.3 - 0.0 - - 10 - - - -
21/01:30pm 20.3 NE 8 10 1016.8 - 0.0 - - 10 - - - -
21/01:00pm 19.1 N 5 7 1017.5 - 0.0 - - 10 - - - -
21/12:30pm 18.9 NNW 4 5 1018.2 - 0.0 - Partly cloudy 10 - - - -
21/12:00pm 17.9 N 4 7 1018.5 - 0.0 - - 10 - - - -
21/11:30am 17.4 NNE 4 5 1018.9 - 0.0 - - 10 - - - -
21/11:00am 16.5 NNE 5 6 1019.2 - 0.0 - - 10 - - - -
21/10:30am 15.7 NNE 4 6 1019.4 - 0.0 - - 10 - - - -
21/10:00am 14.1 NNE 5 6 1019.6 - 0.0 - - 10 - - - -
21/09:30am 13.5 N 4 5 1020.1 - 0.0 - - 10 - - - -
21/09:00am 12.3 NNE 5 7 1019.8 - 0.0 - - 10 - - - -
21/08:30am 11.1 N 4 5 1020.2 - 0.0 - - 10 - - - -
21/08:00am 9.9 N 5 6 1019.9 - 0.0 - - 10 - - - -
21/07:30am 8.5 NNE 6 7 1019.7 - 0.0 - - 10 - - - -
21/07:00am 7.4 N 4 4 1019.5 - 0.0 - - 10 - - - -
21/06:30am 7.4 N 6 7 1019.3 - 0.0 - - 10 - - - -
21/06:00am 7.8 N 5 6 1019.2 - 0.0 - - 10 - - - -
21/05:30am 8.5 N 5 6 1019.0 - 0.0 - Partly cloudy 10 - - - -
21/05:00am 7.9 N 5 6 1018.8 - 0.0 - - 10 - - - -
21/04:30am 7.6 N 5 6 1018.5 - 0.0 - - 10 - - - -
21/04:00am 8.2 NW 6 8 1018.3 - 0.0 - Partly cloudy 10 - - - -
21/03:30am 7.3 NW 6 8 1018.3 - 0.0 - Partly cloudy 10 - - - -
21/03:00am 7.4 N 5 6 1018.3 - 0.0 - - 10 - - - -
21/02:30am 8.6 NNW 7 9 1018.3 - 0.0 - - 10 - - - -
21/02:00am 8.9 NW 8 9 1018.5 - 0.0 - - 10 - - - -
21/01:30am 8.1 NW 7 9 1018.6 - 0.0 - - 10 - - - -
21/01:00am 7.5 NW 6 7 1018.6 - 0.0 - - 10 - - - -
21/12:30am 7.3 NW 5 6 1018.6 - 0.0 - - 10 - - - -
21/12:00am 7.4 NW 5 6 1018.4 - 0.0 - - 10 - - - -
 
Date/Time
EST
Temp

°C
Wind Pressure Rain
since 9am
mm
Weather Cloud Vis
km
Sea
Height
m
Swell
Dir
 
Speed
knots
Gust
knots
hPa Trend Height
m
Period
s
Dir
20/11:30pm 7.2 NW 6 7 1018.5 - 0.0 - - 10 - - - -
20/11:00pm 7.7 NW 6 7 1018.6 - 0.0 - - 10 - - - -
20/10:30pm 8.3 NW 6 8 1018.8 - 0.0 - - 10 - - - -
20/10:00pm 8.3 WNW 7 7 1018.8 - 0.0 - - 10 - - - -
20/09:30pm 7.9 NW 6 7 1018.7 - 0.0 - - 10 - - - -
20/09:00pm 8.4 NW 6 7 1018.4 - 0.0 - - 10 - - - -
20/08:30pm 9.0 NNW 5 6 1018.4 - 0.0 - - 10 - - - -
20/08:00pm 9.6 NW 5 6 1018.3 - 0.0 - - 10 - - - -
20/07:30pm 10.0 NW 6 7 1018.2 - 0.0 - - 10 - - - -
20/07:00pm 10.7 NW 6 7 1017.9 - 0.0 - - 10 - - - -
20/06:30pm 11.1 WNW 5 7 1017.7 - 0.0 - - 10 - - - -
20/06:00pm 12.0 WNW 5 6 1017.3 - 0.0 - Mostly clear 10 - - - -
20/05:30pm 13.9 NW 6 8 1017.0 - 0.0 - Partly cloudy 10 - - - -
20/05:00pm 16.0 NW 8 11 1016.7 - 0.0 - Cloudy 10 - - - -
20/04:30pm 15.1 WNW 8 12 1016.7 - 0.0 - Partly cloudy 10 - - - -
20/04:00pm 15.2 W 9 13 1016.6 - 0.0 - - 10 - - - -
20/03:30pm 16.9 W 13 19 1016.4 - 0.0 - Partly cloudy 10 - - - -
20/03:00pm 17.1 W 12 16 1016.4 - 0.0 - Mostly cloudy 10 - - - -
20/02:30pm 16.8 W 12 15 1016.1 - 0.0 - Cloudy 10 - - - -
20/02:00pm 16.3 W 13 19 1016.1 - 0.0 - Cloudy 10 - - - -
20/01:30pm 16.3 W 16 23 1016.1 - 0.0 - Cloudy 10 - - - -
20/01:00pm 16.4 W 12 20 1016.3 - 0.0 - Cloudy 10 - - - -
20/12:30pm 16.3 W 13 18 1016.6 - 0.0 - Cloudy 10 - - - -
20/12:00pm 16.9 W 14 19 1016.9 - 0.0 - Partly cloudy 10 - - - -
20/11:30am 16.7 WNW 14 19 1017.2 - 0.0 - Partly cloudy 10 - - - -
20/11:00am 15.6 NW 7 11 1017.5 - 0.0 - Cloudy 10 - - - -
20/10:30am 15.0 NNW 6 9 1017.8 - 0.0 - Cloudy 10 - - - -
20/10:00am 14.2 NW 7 10 1018.0 - 0.0 - Cloudy 10 - - - -
20/09:30am 13.8 NW 7 8 1017.9 - 0.0 - Cloudy 10 - - - -
20/09:00am 12.8 NW 7 9 1018.0 - 0.0 - Cloudy 10 - - - -
20/08:30am 11.5 NW 6 8 1017.9 - 0.0 - Cloudy 10 - - - -
20/08:00am 10.6 NW 6 8 1017.7 - 0.0 - Cloudy 10 - - - -
20/07:30am 9.3 NW 6 7 1017.5 - 0.0 - Partly cloudy 10 - - - -
20/07:00am 9.0 NW 5 6 1017.3 - 0.0 - Partly cloudy 10 - - - -
20/06:30am 9.5 NNW 5 6 1017.0 - 0.0 - Cloudy 10 - - - -
20/06:00am 10.2 NW 4 5 1016.9 - 0.0 - Cloudy 10 - - - -
20/05:30am 10.3 NW 5 6 1016.8 - 0.0 - Cloudy 10 - - - -
20/05:00am 10.3 NW 5 6 1016.6 - 0.0 - Cloudy 10 - - - -
20/04:30am 10.1 NW 5 5 1016.4 - 0.0 - Cloudy 10 - - - -
20/04:00am 10.2 WNW 5 6 1016.6 - 0.0 - Cloudy 10 - - - -
20/03:30am 10.0 NW 5 6 1016.6 - 0.0 - Cloudy 10 - - - -
20/03:00am 9.8 NW 3 4 1016.6 - 0.0 - Mostly cloudy 10 - - - -
20/02:30am 10.5 N 3 4 1016.6 - 0.0 - Cloudy 10 - - - -
20/02:00am 10.5 NNW 5 6 1017.0 - 0.0 - Cloudy 10 - - - -
20/01:30am 10.4 NW 5 6 1017.3 - 0.0 - Cloudy 10 - - - -
20/01:00am 10.4 NW 5 6 1017.5 - 0.0 - Cloudy 10 - - - -
20/12:30am 10.4 NW 5 6 1017.7 - 0.0 - Cloudy 10 - - - -
20/12:00am 10.1 NW 5 6 1017.8 - 0.0 - Cloudy 10 - - - -
 
Date/Time
EST
Temp

°C
Wind Pressure Rain
since 9am
mm
Weather Cloud Vis
km
Sea
Height
m
Swell
Dir
 
Speed
knots
Gust
knots
hPa Trend Height
m
Period
s
Dir
19/11:30pm 9.9 NW 5 7 1018.0 - 0.0 - Cloudy 10 - - - -
19/11:00pm 9.4 NW 5 6 1018.2 - 0.0 - Cloudy 10 - - - -
19/10:30pm 10.1 NW 5 6 1018.4 - 0.0 - Partly cloudy 10 - - - -
19/10:00pm 10.6 WNW 5 7 1018.5 - 0.0 - Cloudy 10 - - - -
19/09:30pm 10.5 NW 4 5 1018.6 - 0.0 - Partly cloudy 10 - - - -
19/09:00pm 10.5 NW 5 6 1018.6 - 0.0 - Mostly cloudy 10 - - - -
19/08:30pm 9.7 NW 5 6 1018.5 - 0.0 - Cloudy 10 - - - -
19/08:00pm 10.0 W 4 5 1018.5 - 0.0 - Partly cloudy 10 - - - -
19/07:30pm 10.3 NNW 4 5 1018.5 - 0.0 - Partly cloudy 10 - - - -
19/07:00pm 10.2 W 3 6 1018.4 - 0.0 - Partly cloudy 10 - - - -
19/06:30pm 11.5 SW 3 4 1018.2 - 0.0 - Partly cloudy 10 - - - -
19/06:00pm 12.3 SW 4 4 1017.9 - 0.0 - Mostly cloudy 10 - - - -
19/05:30pm 13.4 SW 7 8 1017.8 - 0.0 - Cloudy 10 - - - -
19/05:00pm 14.0 WSW 9 13 1017.7 - 0.0 - Partly cloudy 10 - - - -
19/04:30pm 14.4 SW 9 13 1017.5 - 0.0 - Partly cloudy 10 - - - -
19/04:00pm 15.0 WSW 11 14 1017.5 - 0.0 - Partly cloudy 10 - - - -
19/03:30pm 15.5 WSW 12 14 1017.3 - 0.0 - Partly cloudy 10 - - - -
19/03:00pm 16.7 WSW 11 15 1017.3 - 0.0 - Cloudy 10 - - - -
19/02:30pm 15.8 WSW 12 16 1017.5 - 0.0 - Partly cloudy 10 - - - -
19/02:00pm 15.6 WSW 10 13 1017.6 - 0.0 - Partly cloudy 10 - - - -
19/01:30pm 14.9 SW 13 17 1017.6 - 0.0 - Partly cloudy 10 - - - -
19/01:00pm 17.4 W 13 20 1017.7 - 0.0 - Partly cloudy 10 - - - -
19/12:30pm 16.3 WSW 13 18 1018.1 - 0.0 - Partly cloudy 10 - - - -
19/12:00pm 15.4 W 15 21 1018.5 - 0.0 - Cloudy 10 - - - -
19/11:30am 14.6 W 12 17 1018.8 - 0.0 - Partly cloudy 10 - - - -
19/11:00am 14.7 WSW 14 19 1019.0 - 0.0 - Partly cloudy 10 - - - -
19/10:30am 16.0 W 12 17 1019.0 - 0.0 - Partly cloudy 10 - - - -
19/10:00am 15.3 W 11 14 1019.2 - 0.0 - Partly cloudy 10 - - - -
19/09:30am 13.8 W 12 16 1019.2 - 0.0 - Partly cloudy 10 - - - -
19/09:00am 13.2 W 9 13 1019.3 - 1.0 - Cloudy 10 - - - -
19/08:30am 12.5 W 10 13 1019.2 - 1.0 - Partly cloudy 10 - - - -
19/08:00am 11.2 WNW 8 10 1018.8 - 1.0 - Partly cloudy 10 - - - -
19/07:30am 11.4 WNW 9 11 1018.6 - 1.0 - Partly cloudy 10 - - - -
19/07:00am 11.1 W 9 12 1018.3 - 1.0 - Cloudy 10 - - - -
19/06:30am 11.1 WNW 8 11 1018.2 - 1.0 - Cloudy 10 - - - -
19/06:00am 11.0 W 9 13 1018.0 - 1.0 - Cloudy 10 - - - -
19/05:30am 10.8 W 10 13 1017.6 - 1.0 - Cloudy 10 - - - -
19/05:00am 10.5 W 9 12 1017.5 - 1.0 - Cloudy 10 - - - -
19/04:30am 9.3 WNW 9 12 1017.5 - 1.0 - Partly cloudy 10 - - - -
19/04:00am 9.1 WNW 9 12 1017.1 - 1.0 - - 10 - - - -
19/03:30am 9.1 WNW 9 11 1017.2 - 1.0 - Partly cloudy 10 - - - -
19/03:00am 8.8 WNW 8 9 1017.3 - 1.0 - - 10 - - - -
19/02:30am 9.4 WNW 9 11 1017.4 - 1.0 - Partly cloudy 10 - - - -
19/02:00am 9.5 WNW 9 12 1017.5 - 1.0 - Partly cloudy 10 - - - -
19/01:30am 9.3 W 10 14 1017.8 - 1.0 - - 10 - - - -
19/01:00am 9.4 W 10 13 1017.8 - 1.0 - - 10 - - - -
19/12:30am 9.3 W 10 12 1017.8 - 1.0 - - 10 - - - -
19/12:00am 9.2 W 8 10 1017.9 - 1.0 - - 10 - - - -
 
Date/Time
EST
Temp

°C
Wind Pressure Rain
since 9am
mm
Weather Cloud Vis
km
Sea
Height
m
Swell
Dir
 
Speed
knots
Gust
knots
hPa Trend Height
m
Period
s
Dir
18/11:30pm 9.4 WNW 8 11 1018.0 - 1.0 - - 10 - - - -
18/11:00pm 9.9 WNW 9 12 1017.9 - 1.0 - - 10 - - - -
18/10:30pm 10.1 WNW 10 12 1018.2 - 1.0 - - 10 - - - -
18/10:00pm 10.4 W 8 10 1018.4 - 1.0 - - 10 - - - -
18/09:30pm 11.0 W 9 13 1018.4 - 1.0 - - 10 - - - -
18/09:00pm 10.6 W 8 11 1018.2 - 1.0 - - 10 - - - -

Other Formats:

Comma delimited format used in spreadsheet applications
http://www.bom.gov.au/fwo/IDV60701/IDV60701.94912.axf

JavaScript Object Notation format (JSON) in row-major order
http://www.bom.gov.au/fwo/IDV60701/IDV60701.94912.json